createdAt,value
2022-12-23T00:04:18.656Z,6.70
2022-12-23T00:09:20.208Z,6.60
2022-12-23T00:14:22.188Z,6.60
2022-12-23T00:19:23.778Z,6.60
2022-12-23T00:24:25.280Z,6.60
2022-12-23T00:29:26.762Z,6.50
2022-12-23T00:34:28.281Z,6.30
2022-12-23T00:39:29.827Z,6.20
2022-12-23T00:44:31.337Z,6.10
2022-12-23T00:49:32.850Z,6.20
2022-12-23T00:54:34.337Z,6.30
2022-12-23T00:59:35.857Z,6.30
2022-12-23T01:04:37.353Z,6.30
2022-12-23T01:09:38.844Z,6.30
2022-12-23T01:14:40.362Z,6.30
2022-12-23T01:19:41.879Z,6.30
2022-12-23T01:24:43.366Z,6.20
2022-12-23T01:29:44.852Z,6.20
2022-12-23T01:34:46.486Z,6.10
2022-12-23T01:39:48.016Z,6.10
2022-12-23T01:44:49.505Z,6.00
2022-12-23T01:49:51.148Z,5.90
2022-12-23T01:54:52.683Z,5.80
2022-12-23T01:59:54.179Z,5.70
2022-12-23T02:04:55.643Z,5.60
2022-12-23T02:09:57.172Z,5.50
2022-12-23T02:14:58.666Z,5.30
2022-12-23T02:20:00.155Z,5.20
2022-12-23T02:25:01.658Z,5.10
2022-12-23T02:30:03.317Z,5.00
2022-12-23T02:35:05.016Z,4.90
2022-12-23T02:40:06.511Z,4.90
2022-12-23T02:45:08.146Z,4.80
2022-12-23T02:50:09.672Z,4.70
2022-12-23T02:55:11.105Z,4.60
2022-12-23T03:00:12.749Z,4.60
2022-12-23T03:05:14.254Z,4.50
2022-12-23T03:10:15.930Z,4.40
2022-12-23T03:15:17.457Z,4.40
2022-12-23T03:20:18.931Z,4.40
2022-12-23T03:25:20.458Z,4.50
2022-12-23T03:30:22.103Z,4.50
2022-12-23T03:35:23.637Z,4.50
2022-12-23T03:40:25.248Z,4.40
2022-12-23T03:45:42.165Z,4.50
2022-12-23T03:50:43.751Z,4.50
2022-12-23T03:55:45.450Z,4.50
2022-12-23T04:00:47.123Z,4.60
2022-12-23T04:05:48.783Z,4.60
2022-12-23T04:10:50.299Z,4.70
2022-12-23T04:15:52.011Z,4.80
2022-12-23T04:20:53.548Z,4.80
2022-12-23T04:25:55.089Z,4.90
2022-12-23T04:30:56.616Z,5.00
2022-12-23T04:35:58.100Z,5.00
2022-12-23T04:40:59.731Z,5.10
2022-12-23T04:46:01.206Z,5.20
2022-12-23T04:51:02.689Z,5.20
2022-12-23T04:56:04.201Z,5.20
2022-12-23T05:01:05.824Z,5.30
2022-12-23T05:06:07.370Z,5.30
2022-12-23T05:11:08.857Z,5.40
2022-12-23T05:16:10.416Z,5.40
2022-12-23T05:21:12.056Z,5.40
2022-12-23T05:26:13.693Z,5.40
2022-12-23T05:31:15.392Z,5.50
2022-12-23T05:36:16.900Z,5.50
2022-12-23T05:41:18.421Z,5.60
2022-12-23T05:46:25.904Z,5.60
2022-12-23T05:51:28.290Z,5.70
2022-12-23T05:56:29.797Z,5.80
2022-12-23T06:01:31.496Z,5.80
2022-12-23T06:06:33.006Z,5.90
2022-12-23T06:11:34.484Z,6.00
2022-12-23T06:16:36.015Z,6.00
2022-12-23T06:21:37.574Z,6.10
2022-12-23T06:26:38.998Z,6.20
2022-12-23T06:31:40.505Z,6.20
2022-12-23T06:36:41.993Z,6.20
2022-12-23T06:41:43.441Z,6.30
2022-12-23T06:46:44.908Z,6.30
2022-12-23T06:51:46.391Z,6.30
2022-12-23T06:56:47.817Z,6.30
2022-12-23T07:01:49.388Z,6.30
2022-12-23T07:06:50.921Z,6.30
2022-12-23T07:11:52.391Z,6.40
2022-12-23T07:16:55.019Z,6.40
2022-12-23T07:21:56.778Z,6.50
2022-12-23T07:26:58.263Z,6.60
2022-12-23T07:31:59.924Z,6.60
2022-12-23T07:37:01.397Z,6.70
2022-12-23T07:42:33.618Z,6.70
2022-12-23T07:47:24.268Z,6.70
2022-12-23T07:52:25.719Z,6.80
2022-12-23T07:57:27.235Z,6.80
2022-12-23T08:02:28.940Z,6.90
2022-12-23T08:07:30.525Z,6.90
2022-12-23T08:12:31.978Z,7.00
2022-12-23T08:17:33.440Z,7.00
2022-12-23T08:22:34.971Z,7.10
2022-12-23T08:27:36.443Z,7.10
2022-12-23T08:32:37.880Z,7.10
2022-12-23T08:37:39.351Z,7.20
2022-12-23T08:42:40.823Z,7.20
2022-12-23T08:47:42.305Z,7.30
2022-12-23T08:52:43.737Z,7.30
2022-12-23T08:57:45.206Z,7.40
2022-12-23T09:02:46.856Z,7.50
2022-12-23T09:07:48.444Z,7.50
2022-12-23T09:12:49.915Z,7.60
2022-12-23T09:17:51.363Z,7.70
2022-12-23T09:22:52.841Z,7.70
2022-12-23T09:27:54.309Z,7.80
2022-12-23T09:32:55.865Z,7.90
2022-12-23T09:37:57.362Z,8.00
2022-12-23T09:42:58.821Z,8.00
2022-12-23T09:48:00.279Z,8.00
2022-12-23T09:53:01.762Z,8.00
2022-12-23T09:58:03.237Z,8.10
2022-12-23T10:03:04.892Z,8.10
2022-12-23T10:08:06.428Z,8.10
2022-12-23T10:13:07.868Z,8.10
2022-12-23T10:18:09.306Z,8.10
2022-12-23T10:23:10.873Z,8.20
2022-12-23T10:28:12.334Z,8.20
2022-12-23T10:33:13.969Z,8.30
2022-12-23T10:38:15.449Z,8.20
2022-12-23T10:43:16.980Z,8.30
2022-12-23T10:48:18.452Z,8.30
2022-12-23T10:53:19.956Z,8.30
2022-12-23T10:58:21.474Z,8.40
2022-12-23T11:03:23.005Z,8.50
2022-12-23T11:08:24.573Z,8.60
2022-12-23T11:13:26.297Z,8.70
2022-12-23T11:18:30.613Z,8.70
2022-12-23T11:23:32.050Z,8.70
2022-12-23T11:28:33.563Z,8.80
2022-12-23T11:33:35.255Z,8.80
2022-12-23T11:38:36.770Z,8.90
2022-12-23T11:43:38.314Z,9.00
2022-12-23T11:48:39.870Z,9.00
2022-12-23T11:53:41.406Z,9.00
2022-12-23T11:58:43.070Z,9.10
2022-12-23T12:03:44.547Z,9.10
2022-12-23T12:08:46.200Z,9.20
2022-12-23T12:13:47.844Z,9.20
2022-12-23T12:18:55.220Z,9.20
2022-12-23T12:24:17.240Z,9.20
2022-12-23T12:29:18.770Z,9.20
2022-12-23T12:34:20.274Z,9.20
2022-12-23T12:39:21.776Z,9.20
2022-12-23T12:44:23.271Z,9.30
2022-12-23T12:49:24.773Z,9.40
2022-12-23T12:54:29.027Z,9.40
2022-12-23T12:59:30.597Z,9.50
2022-12-23T13:04:32.475Z,9.50
2022-12-23T13:09:34.111Z,9.50
2022-12-23T13:14:35.689Z,9.50
2022-12-23T13:19:37.337Z,9.50
2022-12-23T13:24:38.859Z,9.50
2022-12-23T13:29:40.342Z,9.50
2022-12-23T13:34:41.977Z,9.50
2022-12-23T13:39:43.506Z,9.50
2022-12-23T13:44:44.989Z,9.50
2022-12-23T13:49:46.515Z,9.60
2022-12-23T13:54:47.993Z,9.60
2022-12-23T13:59:49.932Z,9.60
2022-12-23T14:04:51.659Z,9.60
2022-12-23T14:09:54.122Z,9.60
2022-12-23T14:14:55.761Z,9.60
2022-12-23T14:19:57.248Z,9.60
2022-12-23T14:24:58.764Z,9.40
2022-12-23T14:30:05.573Z,9.40
2022-12-23T14:35:07.881Z,9.30
2022-12-23T14:40:09.407Z,9.30
2022-12-23T14:45:10.953Z,9.30
2022-12-23T14:50:12.585Z,9.30
2022-12-23T14:55:29.707Z,9.30
2022-12-23T15:00:32.170Z,9.30
2022-12-23T15:05:33.841Z,9.30
2022-12-23T15:10:37.802Z,9.30
2022-12-23T15:15:39.352Z,9.30
2022-12-23T15:20:40.921Z,9.30
2022-12-23T15:25:43.081Z,9.30
2022-12-23T15:30:44.577Z,9.30
2022-12-23T15:35:46.002Z,9.40
2022-12-23T15:40:47.502Z,9.30
2022-12-23T15:45:49.947Z,9.30
2022-12-23T15:50:51.466Z,9.30
2022-12-23T15:55:52.931Z,9.30
2022-12-23T16:00:54.403Z,9.30
2022-12-23T16:05:56.049Z,9.30
2022-12-23T16:10:57.526Z,9.30
2022-12-23T16:15:59.065Z,9.30
2022-12-23T16:21:00.521Z,9.30
2022-12-23T16:26:02.031Z,9.30
2022-12-23T16:31:03.586Z,9.30
2022-12-23T16:36:05.143Z,9.30
2022-12-23T16:41:06.668Z,9.20
2022-12-23T16:46:08.188Z,9.20
2022-12-23T16:51:09.762Z,9.20
2022-12-23T16:56:11.234Z,9.20
2022-12-23T17:01:12.733Z,9.20
2022-12-23T17:06:14.206Z,9.20
2022-12-23T17:11:15.638Z,9.20
2022-12-23T17:16:17.253Z,9.20
2022-12-23T17:21:18.728Z,9.10
2022-12-23T17:26:20.193Z,9.10
2022-12-23T17:31:26.473Z,9.00
2022-12-23T17:36:28.818Z,8.90
2022-12-23T17:41:30.318Z,8.80
2022-12-23T17:46:31.839Z,8.80
2022-12-23T17:51:33.345Z,8.80
2022-12-23T17:56:34.770Z,8.80
2022-12-23T18:01:36.276Z,8.80
2022-12-23T18:06:37.776Z,8.80
2022-12-23T18:11:39.232Z,8.70
2022-12-23T18:16:40.762Z,8.70
2022-12-23T18:21:42.255Z,8.70
2022-12-23T18:26:43.700Z,8.60
2022-12-23T18:31:50.213Z,8.60
2022-12-23T18:36:52.789Z,8.60
2022-12-23T18:41:54.248Z,8.60
2022-12-23T18:46:55.713Z,8.60
2022-12-23T18:51:57.269Z,8.60
2022-12-23T18:56:58.821Z,8.50
2022-12-23T19:02:00.356Z,8.50
2022-12-23T19:07:01.960Z,8.40
2022-12-23T19:12:03.432Z,8.30
2022-12-23T19:17:04.933Z,8.20
2022-12-23T19:22:06.466Z,8.20
2022-12-23T19:27:07.947Z,8.10
2022-12-23T19:32:09.458Z,8.00
2022-12-23T19:37:10.985Z,7.90
2022-12-23T19:42:12.513Z,7.90
2022-12-23T19:47:14.035Z,7.80
2022-12-23T19:52:15.538Z,7.70
2022-12-23T19:57:17.088Z,7.70
2022-12-23T20:02:18.634Z,7.60
2022-12-23T20:07:20.141Z,7.60
2022-12-23T20:12:21.700Z,7.50
2022-12-23T20:17:23.191Z,7.50
2022-12-23T20:22:24.645Z,7.50
2022-12-23T20:27:28.314Z,7.50
2022-12-23T20:32:29.884Z,7.40
2022-12-23T20:37:31.346Z,7.40
2022-12-23T20:42:32.857Z,7.40
2022-12-23T20:47:34.309Z,7.40
2022-12-23T20:52:35.775Z,7.40
2022-12-23T20:57:37.273Z,7.40
2022-12-23T21:02:38.812Z,7.30
2022-12-23T21:07:40.342Z,7.30
2022-12-23T21:12:41.785Z,7.40
2022-12-23T21:17:43.239Z,7.30
2022-12-23T21:22:44.703Z,7.30
2022-12-23T21:27:46.154Z,7.30
2022-12-23T21:32:47.609Z,7.30
2022-12-23T21:37:49.067Z,7.30
2022-12-23T21:42:50.492Z,7.20
2022-12-23T21:47:51.953Z,7.20
2022-12-23T21:52:53.408Z,7.20
2022-12-23T21:57:54.902Z,7.20
2022-12-23T22:02:56.569Z,7.20
2022-12-23T22:07:57.997Z,7.20
2022-12-23T22:12:59.460Z,7.20
2022-12-23T22:18:00.895Z,7.20
2022-12-23T22:23:02.312Z,7.20
2022-12-23T22:28:03.771Z,7.20
2022-12-23T22:33:05.235Z,7.20
2022-12-23T22:38:06.705Z,7.20
2022-12-23T22:43:08.145Z,7.20
2022-12-23T22:48:09.575Z,7.30
2022-12-23T22:53:11.005Z,7.30
2022-12-23T22:58:12.429Z,7.30
2022-12-23T23:03:13.853Z,7.30
2022-12-23T23:08:15.294Z,7.30
2022-12-23T23:13:16.754Z,7.30
2022-12-23T23:18:18.223Z,7.30
2022-12-23T23:23:19.721Z,7.30
2022-12-23T23:28:21.196Z,7.20
2022-12-23T23:33:22.707Z,7.20
2022-12-23T23:38:24.189Z,7.20
2022-12-23T23:43:25.627Z,7.20
2022-12-23T23:48:27.069Z,7.20
2022-12-23T23:53:28.530Z,7.20
2022-12-23T23:58:30.997Z,7.20
